sensor_id;sensor_type;location;lat;lon;timestamp;P1;durP1;ratioP1;P2;durP2;ratioP2
22754;SDS011;11544;42.020;23.094;2023-01-20T00:29:29;0.30;;;0.13;;
22754;SDS011;11544;42.020;23.094;2023-01-20T00:36:07;0.13;;;0.13;;
22754;SDS011;11544;42.020;23.094;2023-01-20T00:38:35;0.95;;;0.20;;
22754;SDS011;11544;42.020;23.094;2023-01-20T00:41:05;0.55;;;0.22;;
22754;SDS011;11544;42.020;23.094;2023-01-20T00:43:32;0.30;;;0.10;;
22754;SDS011;11544;42.020;23.094;2023-01-20T00:46:00;0.60;;;0.20;;
22754;SDS011;11544;42.020;23.094;2023-01-20T00:48:28;0.17;;;0.17;;
22754;SDS011;11544;42.020;23.094;2023-01-20T00:50:55;0.30;;;0.20;;
22754;SDS011;11544;42.020;23.094;2023-01-20T00:53:23;0.22;;;0.10;;
22754;SDS011;11544;42.020;23.094;2023-01-20T00:55:54;0.10;;;0.10;;
22754;SDS011;11544;42.020;23.094;2023-01-20T00:58:22;1.65;;;0.25;;
22754;SDS011;11544;42.020;23.094;2023-01-20T01:00:50;0.20;;;0.15;;
22754;SDS011;11544;42.020;23.094;2023-01-20T01:03:18;0.20;;;0.15;;
22754;SDS011;11544;42.020;23.094;2023-01-20T01:05:46;0.77;;;0.15;;
22754;SDS011;11544;42.020;23.094;2023-01-20T01:08:14;0.20;;;0.10;;
22754;SDS011;11544;42.020;23.094;2023-01-20T01:11:28;1.20;;;0.20;;
22754;SDS011;11544;42.020;23.094;2023-01-20T01:13:55;1.25;;;0.00;;
22754;SDS011;11544;42.020;23.094;2023-01-20T01:16:22;0.10;;;0.10;;
22754;SDS011;11544;42.020;23.094;2023-01-20T01:18:52;1.55;;;0.10;;
22754;SDS011;11544;42.020;23.094;2023-01-20T01:21:23;0.70;;;0.10;;
22754;SDS011;11544;42.020;23.094;2023-01-20T01:23:58;1.08;;;0.30;;
22754;SDS011;11544;42.020;23.094;2023-01-20T01:26:30;1.73;;;0.10;;
22754;SDS011;11544;42.020;23.094;2023-01-20T01:28:57;0.55;;;0.30;;
22754;SDS011;11544;42.020;23.094;2023-01-20T01:31:24;0.65;;;0.25;;
22754;SDS011;11544;42.020;23.094;2023-01-20T01:33:52;0.88;;;0.30;;
22754;SDS011;11544;42.020;23.094;2023-01-20T01:36:19;0.82;;;0.30;;
22754;SDS011;11544;42.020;23.094;2023-01-20T01:38:46;0.40;;;0.20;;
22754;SDS011;11544;42.020;23.094;2023-01-20T01:41:24;0.22;;;0.20;;
22754;SDS011;11544;42.020;23.094;2023-01-20T01:44:13;0.10;;;0.10;;
22754;SDS011;11544;42.020;23.094;2023-01-20T01:46:41;5.07;;;0.30;;
22754;SDS011;11544;42.020;23.094;2023-01-20T01:49:17;1.88;;;0.40;;
22754;SDS011;11544;42.020;23.094;2023-01-20T01:51:58;2.05;;;0.45;;
22754;SDS011;11544;42.020;23.094;2023-01-20T01:54:46;0.50;;;0.25;;
22754;SDS011;11544;42.020;23.094;2023-01-20T01:57:41;1.88;;;0.35;;
22754;SDS011;11544;42.020;23.094;2023-01-20T02:12:09;2.13;;;0.88;;
22754;SDS011;11544;42.020;23.094;2023-01-20T02:14:45;1.08;;;0.40;;
22754;SDS011;11544;42.020;23.094;2023-01-20T02:17:19;0.98;;;0.40;;
22754;SDS011;11544;42.020;23.094;2023-01-20T02:22:38;0.55;;;0.40;;
22754;SDS011;11544;42.020;23.094;2023-01-20T02:25:30;0.38;;;0.38;;
22754;SDS011;11544;42.020;23.094;2023-01-20T02:31:05;3.80;;;1.10;;
22754;SDS011;11544;42.020;23.094;2023-01-20T02:39:21;4.10;;;0.40;;
22754;SDS011;11544;42.020;23.094;2023-01-20T02:42:38;1.65;;;0.45;;
22754;SDS011;11544;42.020;23.094;2023-01-20T02:52:12;1.70;;;0.50;;
22754;SDS011;11544;42.020;23.094;2023-01-20T02:58:13;1.08;;;0.32;;
22754;SDS011;11544;42.020;23.094;2023-01-20T03:00:52;3.28;;;0.57;;
22754;SDS011;11544;42.020;23.094;2023-01-20T03:03:26;3.85;;;0.40;;
22754;SDS011;11544;42.020;23.094;2023-01-20T03:06:01;0.98;;;0.60;;
22754;SDS011;11544;42.020;23.094;2023-01-20T03:08:32;2.08;;;0.82;;
22754;SDS011;11544;42.020;23.094;2023-01-20T03:11:03;0.60;;;0.30;;
22754;SDS011;11544;42.020;23.094;2023-01-20T03:16:20;1.88;;;0.35;;
22754;SDS011;11544;42.020;23.094;2023-01-20T03:18:49;1.25;;;0.32;;
22754;SDS011;11544;42.020;23.094;2023-01-20T03:21:17;0.40;;;0.10;;
22754;SDS011;11544;42.020;23.094;2023-01-20T03:23:49;0.30;;;0.10;;
22754;SDS011;11544;42.020;23.094;2023-01-20T03:26:19;0.25;;;0.20;;
22754;SDS011;11544;42.020;23.094;2023-01-20T03:28:48;1.80;;;0.22;;
22754;SDS011;11544;42.020;23.094;2023-01-20T03:31:27;0.05;;;0.05;;
22754;SDS011;11544;42.020;23.094;2023-01-20T03:33:57;0.45;;;0.10;;
22754;SDS011;11544;42.020;23.094;2023-01-20T03:36:29;0.55;;;0.30;;
22754;SDS011;11544;42.020;23.094;2023-01-20T03:38:58;0.20;;;0.10;;
22754;SDS011;11544;42.020;23.094;2023-01-20T03:43:57;0.10;;;0.05;;
22754;SDS011;11544;42.020;23.094;2023-01-20T03:46:46;0.20;;;0.00;;
22754;SDS011;11544;42.020;23.094;2023-01-20T03:49:42;0.38;;;0.10;;
22754;SDS011;11544;42.020;23.094;2023-01-20T03:55:19;0.00;;;0.00;;
22754;SDS011;11544;42.020;23.094;2023-01-20T03:57:57;0.25;;;0.08;;
22754;SDS011;11544;42.020;23.094;2023-01-20T04:00:38;0.47;;;0.20;;
22754;SDS011;11544;42.020;23.094;2023-01-20T04:03:14;0.10;;;0.10;;
22754;SDS011;11544;42.020;23.094;2023-01-20T04:05:44;4.03;;;0.30;;
22754;SDS011;11544;42.020;23.094;2023-01-20T04:08:19;0.20;;;0.13;;
22754;SDS011;11544;42.020;23.094;2023-01-20T04:10:51;0.10;;;0.10;;
22754;SDS011;11544;42.020;23.094;2023-01-20T04:13:21;0.28;;;0.20;;
22754;SDS011;11544;42.020;23.094;2023-01-20T04:35:41;2.70;;;1.80;;
22754;SDS011;11544;42.020;23.094;2023-01-20T04:38:13;4.13;;;1.83;;
22754;SDS011;11544;42.020;23.094;2023-01-20T04:40:42;2.78;;;1.77;;
22754;SDS011;11544;42.020;23.094;2023-01-20T04:43:11;2.58;;;1.67;;
22754;SDS011;11544;42.020;23.094;2023-01-20T04:45:46;2.03;;;1.10;;
22754;SDS011;11544;42.020;23.094;2023-01-20T04:48:13;1.70;;;0.77;;
22754;SDS011;11544;42.020;23.094;2023-01-20T04:50:40;4.43;;;1.35;;
22754;SDS011;11544;42.020;23.094;2023-01-20T04:53:11;3.85;;;2.00;;
22754;SDS011;11544;42.020;23.094;2023-01-20T04:55:42;3.45;;;2.40;;
22754;SDS011;11544;42.020;23.094;2023-01-20T04:58:09;3.05;;;2.00;;
22754;SDS011;11544;42.020;23.094;2023-01-20T05:00:36;3.40;;;2.30;;
22754;SDS011;11544;42.020;23.094;2023-01-20T05:03:03;3.00;;;2.70;;
22754;SDS011;11544;42.020;23.094;2023-01-20T05:05:31;2.78;;;2.00;;
22754;SDS011;11544;42.020;23.094;2023-01-20T05:08:01;1.35;;;1.00;;
22754;SDS011;11544;42.020;23.094;2023-01-20T05:10:33;2.97;;;1.02;;
22754;SDS011;11544;42.020;23.094;2023-01-20T05:13:00;1.65;;;1.02;;
22754;SDS011;11544;42.020;23.094;2023-01-20T05:15:28;1.55;;;0.98;;
22754;SDS011;11544;42.020;23.094;2023-01-20T05:17:58;1.52;;;0.57;;
22754;SDS011;11544;42.020;23.094;2023-01-20T05:20:25;2.75;;;0.95;;
22754;SDS011;11544;42.020;23.094;2023-01-20T05:22:56;1.02;;;0.68;;
22754;SDS011;11544;42.020;23.094;2023-01-20T05:25:26;1.25;;;0.80;;
22754;SDS011;11544;42.020;23.094;2023-01-20T05:27:53;0.22;;;0.20;;
22754;SDS011;11544;42.020;23.094;2023-01-20T05:30:20;1.83;;;0.57;;
22754;SDS011;11544;42.020;23.094;2023-01-20T05:32:48;4.63;;;0.75;;
22754;SDS011;11544;42.020;23.094;2023-01-20T05:35:15;1.30;;;0.60;;
22754;SDS011;11544;42.020;23.094;2023-01-20T05:37:43;1.73;;;0.80;;
22754;SDS011;11544;42.020;23.094;2023-01-20T05:40:10;2.50;;;1.20;;
22754;SDS011;11544;42.020;23.094;2023-01-20T05:42:38;2.17;;;1.40;;
22754;SDS011;11544;42.020;23.094;2023-01-20T05:45:05;1.40;;;1.05;;
22754;SDS011;11544;42.020;23.094;2023-01-20T05:47:34;2.30;;;1.70;;
22754;SDS011;11544;42.020;23.094;2023-01-20T05:50:02;1.83;;;1.30;;
22754;SDS011;11544;42.020;23.094;2023-01-20T05:52:30;0.55;;;0.55;;
22754;SDS011;11544;42.020;23.094;2023-01-20T05:54:57;3.85;;;0.60;;
22754;SDS011;11544;42.020;23.094;2023-01-20T05:57:24;1.77;;;0.80;;
22754;SDS011;11544;42.020;23.094;2023-01-20T05:59:51;2.25;;;0.60;;
22754;SDS011;11544;42.020;23.094;2023-01-20T06:02:21;0.60;;;0.30;;
22754;SDS011;11544;42.020;23.094;2023-01-20T06:04:48;2.00;;;0.57;;
22754;SDS011;11544;42.020;23.094;2023-01-20T06:07:17;0.70;;;0.52;;
22754;SDS011;11544;42.020;23.094;2023-01-20T06:09:44;1.83;;;1.33;;
22754;SDS011;11544;42.020;23.094;2023-01-20T06:12:11;4.07;;;2.13;;
22754;SDS011;11544;42.020;23.094;2023-01-20T06:14:37;4.97;;;3.00;;
22754;SDS011;11544;42.020;23.094;2023-01-20T06:17:04;6.80;;;2.72;;
22754;SDS011;11544;42.020;23.094;2023-01-20T06:19:31;3.08;;;2.00;;
22754;SDS011;11544;42.020;23.094;2023-01-20T06:21:58;3.83;;;2.20;;
22754;SDS011;11544;42.020;23.094;2023-01-20T06:24:25;3.35;;;1.90;;
22754;SDS011;11544;42.020;23.094;2023-01-20T06:27:04;2.40;;;1.58;;
22754;SDS011;11544;42.020;23.094;2023-01-20T06:32:21;3.80;;;2.88;;
22754;SDS011;11544;42.020;23.094;2023-01-20T06:35:26;3.40;;;2.40;;
22754;SDS011;11544;42.020;23.094;2023-01-20T06:37:58;5.97;;;2.47;;
22754;SDS011;11544;42.020;23.094;2023-01-20T06:40:28;3.28;;;2.42;;
22754;SDS011;11544;42.020;23.094;2023-01-20T06:42:59;4.93;;;2.47;;
22754;SDS011;11544;42.020;23.094;2023-01-20T06:45:26;4.65;;;3.30;;
22754;SDS011;11544;42.020;23.094;2023-01-20T06:47:54;7.15;;;4.47;;
22754;SDS011;11544;42.020;23.094;2023-01-20T06:50:21;9.07;;;4.35;;
22754;SDS011;11544;42.020;23.094;2023-01-20T06:52:48;8.35;;;3.92;;
22754;SDS011;11544;42.020;23.094;2023-01-20T06:55:15;6.97;;;3.55;;
22754;SDS011;11544;42.020;23.094;2023-01-20T06:57:42;3.85;;;2.50;;
22754;SDS011;11544;42.020;23.094;2023-01-20T07:00:09;3.75;;;2.33;;
22754;SDS011;11544;42.020;23.094;2023-01-20T07:02:37;4.43;;;2.08;;
22754;SDS011;11544;42.020;23.094;2023-01-20T07:05:08;2.45;;;1.58;;
22754;SDS011;11544;42.020;23.094;2023-01-20T07:08:00;3.00;;;2.13;;
22754;SDS011;11544;42.020;23.094;2023-01-20T07:10:29;3.97;;;2.20;;
22754;SDS011;11544;42.020;23.094;2023-01-20T07:12:58;4.43;;;2.83;;
22754;SDS011;11544;42.020;23.094;2023-01-20T07:15:25;4.30;;;2.60;;
22754;SDS011;11544;42.020;23.094;2023-01-20T07:17:52;7.07;;;4.15;;
22754;SDS011;11544;42.020;23.094;2023-01-20T07:20:19;8.82;;;5.70;;
22754;SDS011;11544;42.020;23.094;2023-01-20T07:22:46;8.77;;;5.85;;
22754;SDS011;11544;42.020;23.094;2023-01-20T07:25:13;4.97;;;4.00;;
22754;SDS011;11544;42.020;23.094;2023-01-20T07:27:40;7.07;;;3.63;;
22754;SDS011;11544;42.020;23.094;2023-01-20T07:30:08;3.15;;;2.33;;
22754;SDS011;11544;42.020;23.094;2023-01-20T07:32:51;5.88;;;3.22;;
22754;SDS011;11544;42.020;23.094;2023-01-20T07:35:19;8.88;;;3.05;;
22754;SDS011;11544;42.020;23.094;2023-01-20T07:37:46;5.28;;;3.50;;
22754;SDS011;11544;42.020;23.094;2023-01-20T07:40:13;12.20;;;4.55;;
22754;SDS011;11544;42.020;23.094;2023-01-20T07:42:41;4.97;;;2.78;;
22754;SDS011;11544;42.020;23.094;2023-01-20T07:45:08;6.75;;;3.60;;
22754;SDS011;11544;42.020;23.094;2023-01-20T07:47:35;12.32;;;5.55;;
22754;SDS011;11544;42.020;23.094;2023-01-20T07:50:02;8.60;;;4.85;;
22754;SDS011;11544;42.020;23.094;2023-01-20T07:52:29;10.48;;;5.57;;
22754;SDS011;11544;42.020;23.094;2023-01-20T07:54:56;11.25;;;5.72;;
22754;SDS011;11544;42.020;23.094;2023-01-20T07:57:23;10.77;;;5.55;;
22754;SDS011;11544;42.020;23.094;2023-01-20T07:59:49;9.05;;;4.90;;
22754;SDS011;11544;42.020;23.094;2023-01-20T08:02:16;3.92;;;2.80;;
22754;SDS011;11544;42.020;23.094;2023-01-20T08:04:43;5.15;;;2.20;;
22754;SDS011;11544;42.020;23.094;2023-01-20T08:07:10;4.70;;;2.63;;
22754;SDS011;11544;42.020;23.094;2023-01-20T08:09:37;4.38;;;2.22;;
22754;SDS011;11544;42.020;23.094;2023-01-20T08:12:07;8.15;;;3.28;;
22754;SDS011;11544;42.020;23.094;2023-01-20T08:14:34;7.57;;;3.53;;
22754;SDS011;11544;42.020;23.094;2023-01-20T08:17:03;7.28;;;3.70;;
22754;SDS011;11544;42.020;23.094;2023-01-20T08:19:32;4.80;;;2.53;;
22754;SDS011;11544;42.020;23.094;2023-01-20T08:21:59;3.83;;;2.42;;
22754;SDS011;11544;42.020;23.094;2023-01-20T08:24:26;4.97;;;1.80;;
22754;SDS011;11544;42.020;23.094;2023-01-20T08:26:55;4.32;;;2.30;;
22754;SDS011;11544;42.020;23.094;2023-01-20T08:29:22;4.90;;;2.40;;
22754;SDS011;11544;42.020;23.094;2023-01-20T08:32:03;5.32;;;2.53;;
22754;SDS011;11544;42.020;23.094;2023-01-20T08:34:36;5.97;;;3.17;;
22754;SDS011;11544;42.020;23.094;2023-01-20T08:37:16;7.40;;;4.60;;
22754;SDS011;11544;42.020;23.094;2023-01-20T08:39:46;13.68;;;7.57;;
22754;SDS011;11544;42.020;23.094;2023-01-20T08:42:14;9.18;;;6.22;;
22754;SDS011;11544;42.020;23.094;2023-01-20T08:44:41;10.18;;;5.80;;
22754;SDS011;11544;42.020;23.094;2023-01-20T08:47:09;9.00;;;5.97;;
22754;SDS011;11544;42.020;23.094;2023-01-20T08:49:36;15.52;;;7.43;;
22754;SDS011;11544;42.020;23.094;2023-01-20T08:52:03;14.77;;;8.50;;
22754;SDS011;11544;42.020;23.094;2023-01-20T08:54:30;13.18;;;7.88;;
22754;SDS011;11544;42.020;23.094;2023-01-20T08:56:59;12.13;;;8.10;;
22754;SDS011;11544;42.020;23.094;2023-01-20T08:59:33;11.75;;;7.50;;
22754;SDS011;11544;42.020;23.094;2023-01-20T09:02:05;10.55;;;6.55;;
22754;SDS011;11544;42.020;23.094;2023-01-20T09:04:34;14.57;;;7.45;;
22754;SDS011;11544;42.020;23.094;2023-01-20T09:07:04;10.80;;;6.82;;
22754;SDS011;11544;42.020;23.094;2023-01-20T09:09:35;14.25;;;7.70;;
22754;SDS011;11544;42.020;23.094;2023-01-20T09:12:02;14.07;;;8.90;;
22754;SDS011;11544;42.020;23.094;2023-01-20T09:14:31;30.80;;;18.70;;
22754;SDS011;11544;42.020;23.094;2023-01-20T09:17:04;18.63;;;11.18;;
22754;SDS011;11544;42.020;23.094;2023-01-20T09:19:31;20.65;;;11.23;;
22754;SDS011;11544;42.020;23.094;2023-01-20T09:21:58;17.52;;;9.90;;
22754;SDS011;11544;42.020;23.094;2023-01-20T09:24:25;15.85;;;9.90;;
22754;SDS011;11544;42.020;23.094;2023-01-20T09:26:52;16.35;;;10.70;;
22754;SDS011;11544;42.020;23.094;2023-01-20T09:29:19;23.20;;;15.07;;
22754;SDS011;11544;42.020;23.094;2023-01-20T09:31:50;25.20;;;15.05;;
22754;SDS011;11544;42.020;23.094;2023-01-20T09:34:24;24.95;;;13.77;;
22754;SDS011;11544;42.020;23.094;2023-01-20T09:36:53;19.35;;;10.73;;
22754;SDS011;11544;42.020;23.094;2023-01-20T09:39:23;10.10;;;5.43;;
22754;SDS011;11544;42.020;23.094;2023-01-20T09:45:31;8.85;;;4.53;;
22754;SDS011;11544;42.020;23.094;2023-01-20T09:48:10;10.48;;;6.03;;
22754;SDS011;11544;42.020;23.094;2023-01-20T09:51:01;7.38;;;3.08;;
22754;SDS011;11544;42.020;23.094;2023-01-20T09:56:42;9.73;;;5.05;;
22754;SDS011;11544;42.020;23.094;2023-01-20T09:59:21;8.57;;;4.30;;
22754;SDS011;11544;42.020;23.094;2023-01-20T10:02:04;4.05;;;2.15;;
22754;SDS011;11544;42.020;23.094;2023-01-20T10:04:39;3.90;;;2.15;;
22754;SDS011;11544;42.020;23.094;2023-01-20T10:07:21;5.35;;;2.35;;
22754;SDS011;11544;42.020;23.094;2023-01-20T10:10:34;4.32;;;2.78;;
22754;SDS011;11544;42.020;23.094;2023-01-20T10:13:55;4.38;;;1.73;;
22754;SDS011;11544;42.020;23.094;2023-01-20T10:17:02;3.78;;;1.52;;
22754;SDS011;11544;42.020;23.094;2023-01-20T10:19:45;2.88;;;1.23;;
22754;SDS011;11544;42.020;23.094;2023-01-20T10:22:22;3.75;;;1.75;;
22754;SDS011;11544;42.020;23.094;2023-01-20T10:25:01;0.70;;;0.57;;
22754;SDS011;11544;42.020;23.094;2023-01-20T10:27:34;2.40;;;0.82;;
22754;SDS011;11544;42.020;23.094;2023-01-20T10:30:08;5.53;;;0.85;;
22754;SDS011;11544;42.020;23.094;2023-01-20T10:32:43;1.77;;;1.30;;
22754;SDS011;11544;42.020;23.094;2023-01-20T10:35:19;3.63;;;2.35;;
22754;SDS011;11544;42.020;23.094;2023-01-20T10:37:50;6.45;;;2.83;;
22754;SDS011;11544;42.020;23.094;2023-01-20T10:40:23;3.80;;;2.30;;
22754;SDS011;11544;42.020;23.094;2023-01-20T10:43:10;1.77;;;0.60;;
22754;SDS011;11544;42.020;23.094;2023-01-20T10:56:35;1.52;;;0.75;;
22754;SDS011;11544;42.020;23.094;2023-01-20T10:59:14;2.30;;;1.20;;
22754;SDS011;11544;42.020;23.094;2023-01-20T11:01:44;4.63;;;1.40;;
22754;SDS011;11544;42.020;23.094;2023-01-20T11:04:27;8.45;;;4.32;;
22754;SDS011;11544;42.020;23.094;2023-01-20T11:06:55;8.00;;;4.15;;
22754;SDS011;11544;42.020;23.094;2023-01-20T11:09:34;9.15;;;3.90;;
22754;SDS011;11544;42.020;23.094;2023-01-20T11:12:17;10.35;;;3.80;;
22754;SDS011;11544;42.020;23.094;2023-01-20T11:14:47;7.40;;;2.53;;
22754;SDS011;11544;42.020;23.094;2023-01-20T11:17:16;6.88;;;2.90;;
22754;SDS011;11544;42.020;23.094;2023-01-20T11:19:47;6.68;;;2.38;;
22754;SDS011;11544;42.020;23.094;2023-01-20T11:22:31;6.25;;;2.42;;
22754;SDS011;11544;42.020;23.094;2023-01-20T11:25:01;7.63;;;2.55;;
22754;SDS011;11544;42.020;23.094;2023-01-20T11:27:41;6.93;;;3.40;;
22754;SDS011;11544;42.020;23.094;2023-01-20T11:30:24;5.82;;;2.83;;
22754;SDS011;11544;42.020;23.094;2023-01-20T11:36:12;6.10;;;2.03;;
22754;SDS011;11544;42.020;23.094;2023-01-20T11:38:45;1.98;;;1.10;;
22754;SDS011;11544;42.020;23.094;2023-01-20T11:41:21;2.20;;;1.10;;
22754;SDS011;11544;42.020;23.094;2023-01-20T11:44:07;1.25;;;0.60;;
22754;SDS011;11544;42.020;23.094;2023-01-20T11:46:34;2.92;;;0.93;;
22754;SDS011;11544;42.020;23.094;2023-01-20T11:49:31;1.27;;;0.63;;
22754;SDS011;11544;42.020;23.094;2023-01-20T11:52:47;2.30;;;1.02;;
22754;SDS011;11544;42.020;23.094;2023-01-20T11:55:22;4.75;;;1.48;;
22754;SDS011;11544;42.020;23.094;2023-01-20T11:57:56;5.15;;;1.08;;
22754;SDS011;11544;42.020;23.094;2023-01-20T12:00:28;3.97;;;1.23;;
22754;SDS011;11544;42.020;23.094;2023-01-20T12:05:51;2.83;;;1.15;;
22754;SDS011;11544;42.020;23.094;2023-01-20T12:11:07;1.23;;;1.10;;
22754;SDS011;11544;42.020;23.094;2023-01-20T12:13:42;3.28;;;1.17;;
22754;SDS011;11544;42.020;23.094;2023-01-20T12:16:46;3.45;;;0.70;;
22754;SDS011;11544;42.020;23.094;2023-01-20T12:19:43;1.35;;;0.70;;
22754;SDS011;11544;42.020;23.094;2023-01-20T12:22:34;2.67;;;1.38;;
22754;SDS011;11544;42.020;23.094;2023-01-20T12:28:17;4.40;;;1.92;;
22754;SDS011;11544;42.020;23.094;2023-01-20T12:33:34;3.53;;;1.30;;
22754;SDS011;11544;42.020;23.094;2023-01-20T12:38:51;2.70;;;1.00;;
22754;SDS011;11544;42.020;23.094;2023-01-20T12:58:50;3.65;;;1.65;;
22754;SDS011;11544;42.020;23.094;2023-01-20T13:12:42;2.78;;;1.20;;
22754;SDS011;11544;42.020;23.094;2023-01-20T13:20:52;3.95;;;1.10;;
22754;SDS011;11544;42.020;23.094;2023-01-20T13:23:41;1.65;;;0.98;;
22754;SDS011;11544;42.020;23.094;2023-01-20T13:26:08;1.20;;;0.90;;
22754;SDS011;11544;42.020;23.094;2023-01-20T13:28:35;1.33;;;0.60;;
22754;SDS011;11544;42.020;23.094;2023-01-20T13:31:27;1.63;;;0.93;;
22754;SDS011;11544;42.020;23.094;2023-01-20T13:33:55;1.83;;;1.48;;
22754;SDS011;11544;42.020;23.094;2023-01-20T13:39:51;4.43;;;1.58;;
22754;SDS011;11544;42.020;23.094;2023-01-20T13:42:28;3.10;;;1.83;;
22754;SDS011;11544;42.020;23.094;2023-01-20T13:47:59;6.75;;;3.28;;
22754;SDS011;11544;42.020;23.094;2023-01-20T13:50:41;4.90;;;3.17;;
22754;SDS011;11544;42.020;23.094;2023-01-20T13:53:34;6.07;;;4.18;;
22754;SDS011;11544;42.020;23.094;2023-01-20T13:56:29;8.13;;;4.80;;
22754;SDS011;11544;42.020;23.094;2023-01-20T13:59:04;7.85;;;4.22;;
22754;SDS011;11544;42.020;23.094;2023-01-20T14:01:49;9.82;;;4.18;;
22754;SDS011;11544;42.020;23.094;2023-01-20T14:04:17;7.40;;;4.38;;
22754;SDS011;11544;42.020;23.094;2023-01-20T14:06:46;9.30;;;5.35;;
22754;SDS011;11544;42.020;23.094;2023-01-20T14:09:18;12.40;;;6.25;;
22754;SDS011;11544;42.020;23.094;2023-01-20T14:11:53;10.45;;;5.88;;
22754;SDS011;11544;42.020;23.094;2023-01-20T14:14:37;12.13;;;7.30;;
22754;SDS011;11544;42.020;23.094;2023-01-20T14:17:28;3.75;;;1.92;;
22754;SDS011;11544;42.020;23.094;2023-01-20T14:19:54;13.65;;;6.40;;
22754;SDS011;11544;42.020;23.094;2023-01-20T14:22:25;13.45;;;6.95;;
22754;SDS011;11544;42.020;23.094;2023-01-20T14:24:55;15.30;;;7.55;;
22754;SDS011;11544;42.020;23.094;2023-01-20T14:27:25;9.25;;;5.22;;
22754;SDS011;11544;42.020;23.094;2023-01-20T14:29:55;13.43;;;7.15;;
22754;SDS011;11544;42.020;23.094;2023-01-20T14:32:33;6.60;;;4.13;;
22754;SDS011;11544;42.020;23.094;2023-01-20T14:35:11;7.95;;;3.17;;
22754;SDS011;11544;42.020;23.094;2023-01-20T14:37:50;0.70;;;0.70;;
22754;SDS011;11544;42.020;23.094;2023-01-20T14:42:59;7.53;;;3.67;;
22754;SDS011;11544;42.020;23.094;2023-01-20T14:45:29;3.38;;;1.95;;
22754;SDS011;11544;42.020;23.094;2023-01-20T14:47:59;3.30;;;2.30;;
22754;SDS011;11544;42.020;23.094;2023-01-20T14:50:34;4.82;;;2.58;;
22754;SDS011;11544;42.020;23.094;2023-01-20T14:53:06;5.05;;;2.60;;
22754;SDS011;11544;42.020;23.094;2023-01-20T14:55:37;15.25;;;5.43;;
22754;SDS011;11544;42.020;23.094;2023-01-20T14:58:14;5.43;;;2.45;;
22754;SDS011;11544;42.020;23.094;2023-01-20T15:00:45;3.63;;;2.50;;
22754;SDS011;11544;42.020;23.094;2023-01-20T15:03:22;3.95;;;2.40;;
22754;SDS011;11544;42.020;23.094;2023-01-20T15:05:56;4.40;;;2.47;;
22754;SDS011;11544;42.020;23.094;2023-01-20T15:08:45;7.45;;;2.65;;
22754;SDS011;11544;42.020;23.094;2023-01-20T15:11:31;9.82;;;5.22;;
22754;SDS011;11544;42.020;23.094;2023-01-20T15:21:46;9.48;;;4.70;;
22754;SDS011;11544;42.020;23.094;2023-01-20T15:26:47;8.02;;;4.35;;
22754;SDS011;11544;42.020;23.094;2023-01-20T15:29:22;7.30;;;3.83;;
22754;SDS011;11544;42.020;23.094;2023-01-20T15:31:51;7.65;;;3.88;;
22754;SDS011;11544;42.020;23.094;2023-01-20T15:34:22;6.35;;;2.83;;
22754;SDS011;11544;42.020;23.094;2023-01-20T15:36:50;5.05;;;2.60;;
22754;SDS011;11544;42.020;23.094;2023-01-20T15:39:18;7.93;;;3.53;;
22754;SDS011;11544;42.020;23.094;2023-01-20T15:41:47;9.30;;;4.88;;
22754;SDS011;11544;42.020;23.094;2023-01-20T15:44:21;11.10;;;5.47;;
22754;SDS011;11544;42.020;23.094;2023-01-20T15:46:50;5.47;;;2.90;;
22754;SDS011;11544;42.020;23.094;2023-01-20T15:49:17;5.65;;;2.45;;
22754;SDS011;11544;42.020;23.094;2023-01-20T15:51:48;5.85;;;3.50;;
22754;SDS011;11544;42.020;23.094;2023-01-20T15:54:15;5.88;;;3.15;;
22754;SDS011;11544;42.020;23.094;2023-01-20T15:56:42;6.40;;;3.70;;
22754;SDS011;11544;42.020;23.094;2023-01-20T15:59:13;10.68;;;4.93;;
22754;SDS011;11544;42.020;23.094;2023-01-20T16:01:42;5.00;;;3.00;;
22754;SDS011;11544;42.020;23.094;2023-01-20T16:04:12;9.93;;;3.75;;
22754;SDS011;11544;42.020;23.094;2023-01-20T16:06:39;7.82;;;3.88;;
22754;SDS011;11544;42.020;23.094;2023-01-20T16:09:18;8.05;;;3.90;;
22754;SDS011;11544;42.020;23.094;2023-01-20T16:11:50;8.43;;;4.03;;
22754;SDS011;11544;42.020;23.094;2023-01-20T16:14:18;7.57;;;3.88;;
22754;SDS011;11544;42.020;23.094;2023-01-20T16:16:48;10.10;;;4.28;;
22754;SDS011;11544;42.020;23.094;2023-01-20T16:19:15;4.63;;;2.75;;
22754;SDS011;11544;42.020;23.094;2023-01-20T16:21:42;7.45;;;4.70;;
22754;SDS011;11544;42.020;23.094;2023-01-20T16:24:11;10.02;;;5.20;;
22754;SDS011;11544;42.020;23.094;2023-01-20T16:26:41;10.02;;;4.93;;
22754;SDS011;11544;42.020;23.094;2023-01-20T16:29:25;11.18;;;5.97;;
22754;SDS011;11544;42.020;23.094;2023-01-20T16:31:51;7.65;;;3.10;;
22754;SDS011;11544;42.020;23.094;2023-01-20T16:34:29;4.90;;;3.22;;
22754;SDS011;11544;42.020;23.094;2023-01-20T16:37:05;4.30;;;2.10;;
22754;SDS011;11544;42.020;23.094;2023-01-20T16:39:32;4.47;;;1.67;;
22754;SDS011;11544;42.020;23.094;2023-01-20T16:42:12;3.38;;;1.70;;
22754;SDS011;11544;42.020;23.094;2023-01-20T16:44:52;2.95;;;1.58;;
22754;SDS011;11544;42.020;23.094;2023-01-20T17:31:57;3.22;;;1.77;;
22754;SDS011;11544;42.020;23.094;2023-01-20T17:34:38;2.60;;;1.70;;
22754;SDS011;11544;42.020;23.094;2023-01-20T17:37:19;1.95;;;0.80;;
22754;SDS011;11544;42.020;23.094;2023-01-20T17:39:52;3.10;;;1.10;;
22754;SDS011;11544;42.020;23.094;2023-01-20T17:42:19;2.13;;;1.38;;
22754;SDS011;11544;42.020;23.094;2023-01-20T17:44:46;2.38;;;1.42;;
22754;SDS011;11544;42.020;23.094;2023-01-20T17:47:13;4.90;;;2.97;;
22754;SDS011;11544;42.020;23.094;2023-01-20T17:49:40;7.50;;;3.72;;
22754;SDS011;11544;42.020;23.094;2023-01-20T17:52:07;5.28;;;3.47;;
22754;SDS011;11544;42.020;23.094;2023-01-20T17:54:34;4.57;;;2.83;;
22754;SDS011;11544;42.020;23.094;2023-01-20T17:57:01;1.73;;;1.17;;
22754;SDS011;11544;42.020;23.094;2023-01-20T17:59:30;4.45;;;1.30;;
22754;SDS011;11544;42.020;23.094;2023-01-20T18:01:57;3.20;;;1.88;;
22754;SDS011;11544;42.020;23.094;2023-01-20T18:04:24;1.75;;;1.50;;
22754;SDS011;11544;42.020;23.094;2023-01-20T18:06:51;2.00;;;1.42;;
22754;SDS011;11544;42.020;23.094;2023-01-20T18:09:21;3.47;;;2.00;;
22754;SDS011;11544;42.020;23.094;2023-01-20T18:11:47;6.13;;;3.60;;
22754;SDS011;11544;42.020;23.094;2023-01-20T18:14:14;9.57;;;5.03;;
22754;SDS011;11544;42.020;23.094;2023-01-20T18:16:41;14.77;;;7.93;;
22754;SDS011;11544;42.020;23.094;2023-01-20T18:19:12;23.17;;;9.82;;
22754;SDS011;11544;42.020;23.094;2023-01-20T18:21:40;19.40;;;10.73;;
22754;SDS011;11544;42.020;23.094;2023-01-20T18:24:09;19.33;;;10.65;;
22754;SDS011;11544;42.020;23.094;2023-01-20T18:26:37;13.30;;;5.43;;
22754;SDS011;11544;42.020;23.094;2023-01-20T18:29:07;12.63;;;7.25;;
22754;SDS011;11544;42.020;23.094;2023-01-20T18:31:37;15.32;;;7.55;;
22754;SDS011;11544;42.020;23.094;2023-01-20T18:34:05;16.10;;;9.05;;
22754;SDS011;11544;42.020;23.094;2023-01-20T18:36:38;11.73;;;6.68;;
22754;SDS011;11544;42.020;23.094;2023-01-20T18:39:10;12.52;;;6.78;;
22754;SDS011;11544;42.020;23.094;2023-01-20T18:41:42;12.23;;;7.05;;
22754;SDS011;11544;42.020;23.094;2023-01-20T18:44:09;12.57;;;7.75;;
22754;SDS011;11544;42.020;23.094;2023-01-20T18:46:36;11.73;;;7.90;;
22754;SDS011;11544;42.020;23.094;2023-01-20T18:49:04;11.07;;;6.82;;
22754;SDS011;11544;42.020;23.094;2023-01-20T18:51:34;15.90;;;7.88;;
22754;SDS011;11544;42.020;23.094;2023-01-20T18:54:05;16.80;;;8.88;;